Time;durP1;ratioP1;P1;durP2;ratioP2;P2;SDS_P1;SDS_P2;PMS_P1;PMS_P2;Temp;Humidity;BMP_temperature;BMP_pressure;BME280_temperature;BME280_humidity;BME280_pressure;Samples;Min_cycle;Max_cycle;Signal;HPM_P1;HPM_P2
2023/03/02 00:01:51;;;;;;;14.83;8.33;;;;;;;2.74;99.78;99593.19;5046091;28;20770;-80
2023/03/02 00:04:23;;;;;;;11.57;7.57;;;;;;;2.75;99.65;99601.00;5044449;28;20227;-80
2023/03/02 00:06:53;;;;;;;13.57;7.60;;;;;;;2.77;99.05;99598.31;5052691;28;20651;-80
2023/03/02 00:09:21;;;;;;;12.77;7.80;;;;;;;2.61;99.14;99595.25;5053764;28;20213;-80
2023/03/02 00:11:51;;;;;;;11.50;7.50;;;;;;;2.53;99.40;99597.19;5045306;28;20215;-80
2023/03/02 00:14:19;;;;;;;12.93;7.53;;;;;;;2.69;99.93;99590.66;5052020;28;20215;-80
2023/03/02 00:16:49;;;;;;;12.03;7.77;;;;;;;2.48;99.72;99591.19;5051401;28;20208;-80
2023/03/02 00:19:17;;;;;;;11.47;7.70;;;;;;;2.46;99.91;99591.25;5050225;28;20678;-80
2023/03/02 00:21:47;;;;;;;11.37;7.63;;;;;;;2.64;99.68;99589.09;5052916;28;20227;-81
2023/03/02 00:24:16;;;;;;;14.37;7.93;;;;;;;2.55;98.88;99582.31;5034459;28;20197;-80
2023/03/02 00:26:44;;;;;;;11.07;7.23;;;;;;;2.62;98.53;99586.50;5044238;28;20246;-81
2023/03/02 00:29:12;;;;;;;14.37;7.50;;;;;;;2.53;99.21;99579.75;5054125;28;20221;-80
2023/03/02 00:31:41;;;;;;;14.70;8.47;;;;;;;2.30;100.00;99582.91;5052273;28;20241;-80
2023/03/02 00:34:11;;;;;;;12.37;7.23;;;;;;;2.30;100.00;99579.44;5048630;28;20233;-80
2023/03/02 00:36:39;;;;;;;13.47;7.60;;;;;;;2.23;100.00;99565.66;5051912;28;20257;-80
2023/03/02 00:39:08;;;;;;;13.87;8.03;;;;;;;2.30;100.00;99564.59;5051997;28;20200;-80
2023/03/02 00:41:36;;;;;;;11.47;7.37;;;;;;;2.24;100.00;99564.78;5046165;28;20239;-80
2023/03/02 00:44:04;;;;;;;13.83;7.90;;;;;;;2.14;100.00;99563.28;5050215;28;20687;-79
2023/03/02 00:46:33;;;;;;;12.97;7.90;;;;;;;2.20;100.00;99557.88;5039081;28;20191;-78
2023/03/02 00:49:01;;;;;;;11.87;7.40;;;;;;;2.24;100.00;99558.69;5065974;28;20229;-80
2023/03/02 00:51:31;;;;;;;13.93;8.30;;;;;;;2.18;100.00;99553.59;5057280;27;20644;-80
2023/03/02 00:54:01;;;;;;;12.80;8.13;;;;;;;2.30;100.00;99555.91;5052009;28;20668;-80
2023/03/02 00:56:30;;;;;;;13.50;7.87;;;;;;;2.26;100.00;99549.91;5047612;28;20291;-80
2023/03/02 00:58:58;;;;;;;12.13;7.80;;;;;;;2.08;100.00;99544.25;5049615;28;20194;-80
2023/03/02 01:01:27;;;;;;;11.17;7.43;;;;;;;2.11;100.00;99547.66;5055197;28;20193;-80
2023/03/02 01:03:55;;;;;;;12.03;7.40;;;;;;;2.09;100.00;99543.38;5051927;28;20269;-80
2023/03/02 01:06:23;;;;;;;10.47;7.07;;;;;;;2.03;100.00;99539.16;5051578;28;20197;-80
2023/03/02 01:08:54;;;;;;;14.20;7.70;;;;;;;2.03;100.00;99538.25;5043062;28;20229;-80
2023/03/02 01:11:23;;;;;;;11.70;7.83;;;;;;;2.08;100.00;99542.50;5051002;28;20205;-80
2023/03/02 01:13:51;;;;;;;14.13;7.57;;;;;;;2.23;100.00;99521.25;5048341;28;20193;-80
2023/03/02 01:16:20;;;;;;;13.73;7.93;;;;;;;2.11;100.00;99524.13;5047386;28;20201;-80
2023/03/02 01:18:49;;;;;;;11.77;7.97;;;;;;;2.15;100.00;99517.09;5072463;28;20196;-80
2023/03/02 01:21:19;;;;;;;10.97;7.00;;;;;;;2.17;100.00;99524.00;5070227;28;20226;-80
2023/03/02 01:23:48;;;;;;;12.77;7.73;;;;;;;2.14;100.00;99512.78;5072603;28;20196;-80
2023/03/02 01:26:18;;;;;;;12.63;7.90;;;;;;;2.19;100.00;99509.13;5068704;28;20192;-80
2023/03/02 01:28:46;;;;;;;14.77;7.90;;;;;;;2.10;100.00;99509.34;5067456;28;20349;-80
2023/03/02 01:31:16;;;;;;;12.53;8.53;;;;;;;2.21;100.00;99501.25;5073018;28;20188;-80
2023/03/02 01:33:45;;;;;;;15.17;8.30;;;;;;;1.94;100.00;99500.19;5069596;28;20205;-81
2023/03/02 01:36:13;;;;;;;14.17;8.20;;;;;;;2.00;100.00;99500.88;5064782;28;20197;-80
2023/03/02 01:38:41;;;;;;;13.87;8.40;;;;;;;1.94;100.00;99495.81;5050061;28;20250;-80
2023/03/02 01:41:09;;;;;;;13.57;8.50;;;;;;;1.96;100.00;99501.00;5050102;28;20227;-80
2023/03/02 01:43:39;;;;;;;13.97;8.40;;;;;;;1.91;100.00;99497.63;5026432;28;20259;-80
2023/03/02 01:46:13;;;;;;;12.77;7.57;;;;;;;2.08;100.00;99497.22;5025672;28;20201;-80
2023/03/02 01:48:46;;;;;;;14.00;8.13;;;;;;;1.95;100.00;99494.94;5024496;28;20194;-80
2023/03/02 01:51:18;;;;;;;13.30;7.87;;;;;;;2.09;100.00;99493.72;5025640;28;20198;-80
2023/03/02 01:53:48;;;;;;;11.50;7.93;;;;;;;2.05;100.00;99494.72;5025395;28;20206;-80
2023/03/02 01:56:23;;;;;;;12.10;7.87;;;;;;;1.94;100.00;99493.22;5028126;28;20194;-81
2023/03/02 01:59:00;;;;;;;12.53;7.63;;;;;;;1.97;100.00;99490.50;5025636;28;20251;-80
2023/03/02 02:01:30;;;;;;;13.73;8.00;;;;;;;2.01;100.00;99491.28;5023373;28;20244;-80
2023/03/02 02:04:00;;;;;;;13.37;8.30;;;;;;;1.96;100.00;99491.41;5008265;28;20198;-80
2023/03/02 02:06:33;;;;;;;13.43;8.70;;;;;;;2.08;100.00;99500.72;5011791;28;20244;-80
2023/03/02 02:09:03;;;;;;;12.07;7.83;;;;;;;2.00;100.00;99487.81;4993346;28;20267;-80
2023/03/02 02:11:32;;;;;;;14.83;8.73;;;;;;;1.89;100.00;99497.66;5009880;28;20198;-80
2023/03/02 02:14:03;;;;;;;12.23;7.63;;;;;;;1.90;100.00;99493.31;5008416;28;20358;-80
2023/03/02 02:16:33;;;;;;;14.50;8.43;;;;;;;1.81;100.00;99499.59;5011125;28;20191;-80
2023/03/02 02:19:04;;;;;;;13.33;7.83;;;;;;;1.87;100.00;99509.91;5012113;28;20202;-81
2023/03/02 02:21:32;;;;;;;15.70;8.17;;;;;;;1.97;100.00;99500.97;5010828;28;20256;-80
2023/03/02 02:24:09;;;;;;;14.67;8.77;;;;;;;1.88;100.00;99506.41;5014403;28;20198;-80
2023/03/02 02:26:44;;;;;;;15.20;8.43;;;;;;;1.94;100.00;99501.03;5010699;28;20247;-80
2023/03/02 02:29:17;;;;;;;13.43;8.57;;;;;;;1.97;100.00;99494.88;5009906;28;20246;-80
2023/03/02 02:31:48;;;;;;;15.27;8.53;;;;;;;1.85;100.00;99489.97;5013439;28;20198;-80
2023/03/02 02:34:22;;;;;;;12.53;7.70;;;;;;;1.78;100.00;99490.97;5010846;28;20212;-80
2023/03/02 02:36:55;;;;;;;14.70;8.73;;;;;;;1.89;100.00;99491.59;5013627;28;20195;-80
2023/03/02 02:39:28;;;;;;;15.53;8.90;;;;;;;1.77;100.00;99490.13;5010633;28;20225;-80
2023/03/02 02:42:01;;;;;;;14.80;8.53;;;;;;;1.61;100.00;99484.38;5012163;28;20205;-80
2023/03/02 02:44:31;;;;;;;12.43;7.93;;;;;;;1.66;100.00;99482.53;5028134;28;20229;-80
2023/03/02 02:46:59;;;;;;;15.10;7.97;;;;;;;1.59;100.00;99488.78;5050185;28;20201;-80
2023/03/02 02:49:32;;;;;;;15.00;8.33;;;;;;;1.58;100.00;99483.59;5045727;28;20221;-80
2023/03/02 02:52:01;;;;;;;13.10;8.20;;;;;;;1.49;100.00;99489.03;5050748;28;20193;-80
2023/03/02 02:54:31;;;;;;;14.40;9.10;;;;;;;1.50;100.00;99483.78;5050682;28;20257;-80
2023/03/02 02:57:04;;;;;;;16.10;8.37;;;;;;;1.48;100.00;99488.16;5045828;28;20249;-80
2023/03/02 02:59:38;;;;;;;14.87;8.27;;;;;;;1.58;100.00;99484.47;5052006;28;20193;-80
2023/03/02 03:02:07;;;;;;;13.57;7.93;;;;;;;1.59;100.00;99483.56;5051814;28;20208;-79
2023/03/02 03:04:35;;;;;;;14.67;8.47;;;;;;;1.65;100.00;99482.59;5050863;28;20254;-80
2023/03/02 03:07:05;;;;;;;14.00;8.23;;;;;;;1.58;100.00;99489.69;5059635;27;20246;-80
2023/03/02 03:09:34;;;;;;;13.70;7.80;;;;;;;1.53;100.00;99490.66;5047446;28;20221;-79
2023/03/02 03:12:11;;;;;;;15.47;7.63;;;;;;;1.42;100.00;99481.31;5047168;28;20196;-80
2023/03/02 03:14:41;;;;;;;14.77;8.17;;;;;;;1.66;100.00;99479.94;5050014;28;20201;-80
2023/03/02 03:17:12;;;;;;;14.53;8.00;;;;;;;1.49;100.00;99475.97;5053409;27;20208;-79
2023/03/02 03:19:41;;;;;;;14.17;8.27;;;;;;;1.39;100.00;99476.19;5045785;28;20193;-80
2023/03/02 03:22:12;;;;;;;14.20;8.37;;;;;;;1.44;100.00;99479.53;5049660;28;20263;-79
2023/03/02 03:24:42;;;;;;;13.60;7.93;;;;;;;1.55;100.00;99470.63;5043296;28;20323;-80
2023/03/02 03:27:13;;;;;;;14.60;8.27;;;;;;;1.49;100.00;99478.59;5043382;28;20197;-80
2023/03/02 03:29:44;;;;;;;14.23;8.07;;;;;;;1.44;100.00;99470.84;5048676;28;20225;-80
2023/03/02 03:32:12;;;;;;;13.83;7.70;;;;;;;1.50;100.00;99464.66;5049498;28;20204;-80
2023/03/02 03:34:40;;;;;;;11.83;7.00;;;;;;;1.38;100.00;99464.03;5062038;27;20236;-80
2023/03/02 03:37:09;;;;;;;13.43;7.40;;;;;;;1.53;100.00;99469.78;5051824;28;20209;-80
2023/03/02 03:39:38;;;;;;;12.90;8.30;;;;;;;1.37;100.00;99467.53;5052371;28;20205;-80
2023/03/02 03:42:07;;;;;;;12.77;7.23;;;;;;;1.22;100.00;99480.88;5048214;28;20197;-79
2023/03/02 03:44:36;;;;;;;14.33;7.37;;;;;;;1.23;100.00;99476.53;5049311;28;20281;-80
2023/03/02 03:47:05;;;;;;;12.20;7.80;;;;;;;1.33;100.00;99472.84;5053189;28;20201;-79
2023/03/02 03:49:33;;;;;;;13.07;7.50;;;;;;;1.14;100.00;99470.59;5044829;28;20185;-80
2023/03/02 03:52:04;;;;;;;13.23;7.10;;;;;;;1.11;100.00;99464.63;5046021;28;20242;-80
2023/03/02 03:54:32;;;;;;;11.70;7.10;;;;;;;1.07;100.00;99466.44;5053069;28;20204;-79
2023/03/02 03:57:00;;;;;;;12.63;6.77;;;;;;;1.10;100.00;99461.16;5052745;28;20197;-80
2023/03/02 03:59:30;;;;;;;11.80;7.30;;;;;;;1.09;100.00;99462.03;5047534;28;20193;-80
2023/03/02 04:02:01;;;;;;;12.33;7.30;;;;;;;0.99;100.00;99468.34;5048146;28;20195;-79
2023/03/02 04:04:32;;;;;;;14.27;7.70;;;;;;;1.03;100.00;99475.19;5050139;28;20249;-79
2023/03/02 04:07:01;;;;;;;12.87;7.30;;;;;;;0.95;100.00;99468.41;5050842;28;20201;-80
2023/03/02 04:09:31;;;;;;;13.27;7.50;;;;;;;0.95;100.00;99471.88;5041599;28;20209;-79
2023/03/02 04:11:59;;;;;;;12.57;6.87;;;;;;;1.15;100.00;99477.53;5046895;28;20259;-80
2023/03/02 04:14:27;;;;;;;12.13;6.97;;;;;;;1.23;100.00;99474.78;5026957;28;20201;-80
2023/03/02 04:16:57;;;;;;;11.63;7.27;;;;;;;1.22;100.00;99475.69;5035648;28;20227;-80
2023/03/02 04:19:27;;;;;;;12.17;7.30;;;;;;;1.15;100.00;99474.94;5037844;28;20197;-80
2023/03/02 04:21:57;;;;;;;10.23;6.53;;;;;;;1.12;100.00;99475.00;5027050;28;20280;-80
2023/03/02 04:24:25;;;;;;;14.10;7.53;;;;;;;1.14;100.00;99474.97;5036328;28;20194;-80
2023/03/02 04:26:53;;;;;;;11.80;7.30;;;;;;;0.96;100.00;99475.34;5023347;28;20784;-80
2023/03/02 04:29:22;;;;;;;12.03;6.30;;;;;;;0.96;100.00;99477.94;5026881;28;20202;-80
2023/03/02 04:31:50;;;;;;;9.87;6.40;;;;;;;0.83;100.00;99480.81;5040917;28;20221;-80
2023/03/02 04:34:19;;;;;;;12.70;7.13;;;;;;;0.81;100.00;99481.75;5048807;28;20458;-79
2023/03/02 04:36:49;;;;;;;13.37;7.10;;;;;;;0.66;100.00;99479.41;5055269;27;20209;-80
2023/03/02 04:39:19;;;;;;;10.67;6.63;;;;;;;0.62;100.00;99483.81;5048839;28;20200;-80
2023/03/02 04:41:48;;;;;;;10.43;6.57;;;;;;;0.58;100.00;99476.97;5047525;28;20205;-80
2023/03/02 04:44:18;;;;;;;14.33;7.37;;;;;;;0.42;100.00;99468.56;5048769;28;20227;-79
2023/03/02 04:46:49;;;;;;;12.83;7.13;;;;;;;0.53;100.00;99476.19;5052394;28;20206;-80
2023/03/02 04:49:19;;;;;;;13.37;7.67;;;;;;;0.53;100.00;99478.78;5053953;27;20217;-80
2023/03/02 04:51:50;;;;;;;10.93;7.20;;;;;;;0.52;100.00;99472.72;5050087;28;20221;-80
2023/03/02 04:54:24;;;;;;;12.77;7.57;;;;;;;0.46;100.00;99471.97;5052238;28;20189;-80
2023/03/02 04:56:53;;;;;;;13.07;6.63;;;;;;;0.41;100.00;99476.41;5059399;27;20208;-80
2023/03/02 04:59:24;;;;;;;13.83;7.97;;;;;;;0.39;100.00;99470.38;5051937;28;20197;-79
2023/03/02 05:01:53;;;;;;;13.33;6.90;;;;;;;0.45;100.00;99476.31;5007514;28;20214;-80
2023/03/02 05:04:22;;;;;;;14.33;7.90;;;;;;;0.45;100.00;99481.53;5023403;28;20202;-79
2023/03/02 05:06:52;;;;;;;14.17;8.00;;;;;;;0.48;100.00;99491.03;5021504;28;20190;-79
2023/03/02 05:09:26;;;;;;;11.73;7.17;;;;;;;0.45;100.00;99486.72;5009849;28;20206;-80
2023/03/02 05:11:54;;;;;;;11.77;7.30;;;;;;;0.33;100.00;99497.38;5012406;28;20226;-79
2023/03/02 05:14:24;;;;;;;10.73;7.00;;;;;;;0.36;100.00;99493.84;5005902;28;20198;-79
2023/03/02 05:16:53;;;;;;;10.77;6.90;;;;;;;0.32;100.00;99495.66;5006588;28;20187;-79
2023/03/02 05:19:22;;;;;;;12.40;7.20;;;;;;;0.19;100.00;99484.59;5031598;28;20204;-80
2023/03/02 05:21:52;;;;;;;12.90;7.60;;;;;;;0.23;100.00;99490.59;5051288;28;20189;-80
2023/03/02 05:24:20;;;;;;;12.63;7.57;;;;;;;0.05;100.00;99493.50;5051573;28;20620;-80
2023/03/02 05:26:49;;;;;;;12.57;7.20;;;;;;;0.05;100.00;99489.16;5045949;28;20223;-80
2023/03/02 05:29:17;;;;;;;12.03;7.43;;;;;;;0.12;100.00;99495.13;5051411;28;20273;-80
2023/03/02 05:31:47;;;;;;;12.43;7.20;;;;;;;0.12;100.00;99493.41;5051403;28;20707;-80
2023/03/02 05:34:18;;;;;;;13.50;7.77;;;;;;;0.14;100.00;99493.38;5051319;28;20201;-80
2023/03/02 05:36:47;;;;;;;12.53;7.37;;;;;;;0.11;100.00;99498.63;5064968;27;20213;-80
2023/03/02 05:39:17;;;;;;;12.17;7.97;;;;;;;0.13;100.00;99489.03;5050726;28;20304;-79
2023/03/02 05:41:45;;;;;;;12.93;7.70;;;;;;;0.16;100.00;99504.59;5046161;28;20281;-80
2023/03/02 05:44:14;;;;;;;10.50;7.07;;;;;;;0.30;100.00;99496.59;5051164;28;20289;-81
2023/03/02 05:46:42;;;;;;;10.67;6.73;;;;;;;0.23;100.00;99503.63;5050918;28;20191;-80
2023/03/02 05:49:11;;;;;;;13.90;6.83;;;;;;;0.30;100.00;99502.66;5046600;28;20196;-80
2023/03/02 05:51:39;;;;;;;10.60;6.57;;;;;;;0.32;100.00;99493.06;5055426;27;20220;-80
2023/03/02 05:54:07;;;;;;;13.43;7.77;;;;;;;0.34;100.00;99509.50;5046939;28;20201;-80
2023/03/02 05:56:37;;;;;;;11.10;7.00;;;;;;;0.28;100.00;99504.41;5049877;28;20269;-80
2023/03/02 05:59:08;;;;;;;10.73;6.87;;;;;;;0.24;100.00;99500.13;5051081;28;20201;-80
2023/03/02 06:01:37;;;;;;;11.03;7.50;;;;;;;0.25;100.00;99502.72;5054912;27;20205;-79
2023/03/02 06:04:06;;;;;;;14.53;7.53;;;;;;;0.18;100.00;99501.09;5050811;28;20185;-80
2023/03/02 06:06:34;;;;;;;11.23;7.43;;;;;;;0.24;100.00;99506.19;5051299;28;20192;-79
2023/03/02 06:09:03;;;;;;;10.97;6.87;;;;;;;0.35;100.00;99511.22;5069144;28;20200;-79
2023/03/02 06:11:32;;;;;;;12.60;7.60;;;;;;;0.38;100.00;99500.75;5065598;28;20645;-80
2023/03/02 06:14:02;;;;;;;13.80;7.60;;;;;;;0.45;100.00;99512.78;5067841;28;20242;-80
2023/03/02 06:16:32;;;;;;;16.30;8.17;;;;;;;0.54;100.00;99512.63;5069285;28;20200;-80
2023/03/02 06:19:01;;;;;;;11.57;7.10;;;;;;;0.57;100.00;99506.50;5067020;28;20378;-80
2023/03/02 06:21:29;;;;;;;13.50;7.60;;;;;;;0.63;100.00;99509.00;5068084;28;20193;-79
2023/03/02 06:23:58;;;;;;;13.47;7.50;;;;;;;0.49;100.00;99511.00;5060262;28;20200;-80
2023/03/02 06:26:27;;;;;;;13.60;7.80;;;;;;;0.64;100.00;99508.09;5058847;28;20209;-80
2023/03/02 06:28:55;;;;;;;11.80;7.07;;;;;;;0.64;100.00;99504.66;5049452;28;20190;-79
2023/03/02 06:31:25;;;;;;;12.57;8.07;;;;;;;0.69;100.00;99511.50;5047802;28;20224;-80
2023/03/02 06:33:55;;;;;;;14.60;8.27;;;;;;;0.68;100.00;99514.16;5088999;28;20199;-79
2023/03/02 06:36:24;;;;;;;16.13;7.30;;;;;;;0.71;100.00;99517.53;5087381;28;20654;-80
2023/03/02 06:38:53;;;;;;;11.80;7.17;;;;;;;0.65;100.00;99514.19;5087837;28;20257;-79
2023/03/02 06:41:22;;;;;;;13.17;7.70;;;;;;;0.62;100.00;99520.31;5087564;28;20261;-79
2023/03/02 06:43:50;;;;;;;15.67;7.77;;;;;;;0.72;100.00;99514.06;5079226;28;20231;-80
2023/03/02 06:46:18;;;;;;;13.00;7.80;;;;;;;0.75;100.00;99523.56;5088593;28;20249;-80
2023/03/02 06:48:48;;;;;;;12.47;7.83;;;;;;;0.76;100.00;99513.09;5091202;28;20204;-79
2023/03/02 06:51:16;;;;;;;12.93;7.57;;;;;;;0.86;100.00;99516.38;5082577;28;20185;-79
2023/03/02 06:53:45;;;;;;;11.87;7.60;;;;;;;0.76;100.00;99514.84;5049985;28;20260;-80
2023/03/02 06:56:13;;;;;;;15.03;8.43;;;;;;;0.86;100.00;99511.16;5048367;28;20208;-79
2023/03/02 06:58:41;;;;;;;12.50;7.67;;;;;;;1.02;100.00;99512.59;5050038;28;20205;-80
2023/03/02 07:01:09;;;;;;;15.20;8.30;;;;;;;1.10;100.00;99507.25;5047001;28;20206;-80
2023/03/02 07:03:39;;;;;;;13.07;7.97;;;;;;;1.07;100.00;99513.38;5044686;28;20216;-80
2023/03/02 07:06:11;;;;;;;14.37;7.53;;;;;;;1.21;100.00;99504.41;5049978;28;20192;-80
2023/03/02 07:08:40;;;;;;;13.33;8.27;;;;;;;1.29;100.00;99516.41;5048310;28;20212;-79
2023/03/02 07:11:10;;;;;;;13.53;8.27;;;;;;;1.39;100.00;99509.25;5047279;28;20254;-79
2023/03/02 07:13:39;;;;;;;15.87;8.97;;;;;;;1.47;100.00;99511.69;5046998;28;20213;-78
2023/03/02 07:16:09;;;;;;;13.57;8.37;;;;;;;1.56;100.00;99504.53;5049965;28;20201;-78
2023/03/02 07:18:38;;;;;;;13.10;8.47;;;;;;;1.73;100.00;99502.38;5049678;28;20481;-78
2023/03/02 07:21:09;;;;;;;12.57;7.97;;;;;;;1.72;100.00;99499.81;5049835;28;20268;-81
2023/03/02 07:23:37;;;;;;;13.43;7.90;;;;;;;1.82;100.00;99500.44;5049638;28;20218;-77
2023/03/02 07:26:07;;;;;;;12.80;7.60;;;;;;;1.72;100.00;99507.63;5046305;28;20216;-78
2023/03/02 07:28:38;;;;;;;13.67;8.33;;;;;;;1.87;100.00;99498.59;5050273;28;20189;-80
2023/03/02 07:31:07;;;;;;;13.57;8.20;;;;;;;1.92;99.60;99499.34;5051593;28;20205;-79
2023/03/02 07:33:36;;;;;;;16.07;9.13;;;;;;;2.07;97.31;99503.34;5053002;27;20255;-79
2023/03/02 07:36:05;;;;;;;15.10;9.00;;;;;;;2.07;96.88;99495.53;5049949;28;20222;-79
2023/03/02 07:38:37;;;;;;;19.37;10.03;;;;;;;2.11;95.78;99502.38;5050051;28;20201;-78
2023/03/02 07:41:09;;;;;;;17.47;9.83;;;;;;;2.22;94.08;99505.56;5054325;27;20231;-79
2023/03/02 07:43:38;;;;;;;16.63;9.27;;;;;;;2.40;92.69;99504.28;5047646;28;20225;-78
2023/03/02 07:46:06;;;;;;;17.37;11.17;;;;;;;2.28;92.10;99505.44;5049417;28;20200;-79
2023/03/02 07:48:35;;;;;;;39.90;20.77;;;;;;;2.26;92.44;99505.47;5049381;28;20201;-78
2023/03/02 07:51:06;;;;;;;37.47;18.60;;;;;;;2.37;92.24;99512.19;5049454;28;20237;-79
2023/03/02 07:53:36;;;;;;;31.57;16.67;;;;;;;2.55;91.06;99511.72;5049176;28;20229;-78
2023/03/02 07:56:08;;;;;;;15.87;10.07;;;;;;;2.46;89.96;99501.50;5054315;27;20193;-79
2023/03/02 07:58:37;;;;;;;16.87;10.27;;;;;;;2.60;88.76;99502.00;5044167;28;20204;-80
2023/03/02 08:01:05;;;;;;;14.57;9.20;;;;;;;2.70;88.33;99506.13;5047662;28;20201;-79
2023/03/02 08:03:34;;;;;;;15.20;8.67;;;;;;;2.83;88.35;99496.16;5049437;28;20643;-79
2023/03/02 08:06:06;;;;;;;14.63;8.63;;;;;;;2.77;88.25;99502.41;5046480;28;20197;-79
2023/03/02 08:08:37;;;;;;;13.63;8.00;;;;;;;2.74;87.43;99504.25;5024900;28;20287;-80
2023/03/02 08:11:06;;;;;;;13.70;8.20;;;;;;;2.80;87.24;99509.34;5024080;28;20198;-79
2023/03/02 08:13:34;;;;;;;13.13;7.80;;;;;;;2.77;84.93;99518.09;5030080;28;20219;-79
2023/03/02 08:16:08;;;;;;;14.63;8.97;;;;;;;2.84;84.55;99509.19;4979877;28;20699;-80
2023/03/02 08:18:37;;;;;;;11.43;7.97;;;;;;;2.96;83.51;99509.75;5022857;28;20197;-78
2023/03/02 08:21:12;;;;;;;13.77;8.27;;;;;;;2.98;82.76;99510.56;5027136;28;20201;-79
2023/03/02 08:23:42;;;;;;;14.93;8.23;;;;;;;3.11;82.35;99504.97;5023874;28;20652;-78
2023/03/02 08:26:11;;;;;;;16.03;8.77;;;;;;;3.11;81.14;99506.72;5031832;28;20647;-79
2023/03/02 08:28:43;;;;;;;14.80;8.93;;;;;;;3.12;80.21;99506.69;5050245;28;20272;-79
2023/03/02 08:31:12;;;;;;;13.83;8.50;;;;;;;3.13;80.10;99505.78;5048310;28;20204;-79
2023/03/02 08:33:40;;;;;;;15.17;8.83;;;;;;;3.25;79.05;99516.81;5052167;28;20208;-79
2023/03/02 08:36:13;;;;;;;11.67;8.30;;;;;;;3.31;78.95;99511.41;5052290;28;20193;-78
2023/03/02 08:38:43;;;;;;;13.67;8.17;;;;;;;3.43;78.77;99513.66;5056683;27;20376;-78
2023/03/02 08:41:14;;;;;;;13.83;8.83;;;;;;;3.48;78.31;99506.53;5048778;28;20207;-78
2023/03/02 08:43:42;;;;;;;13.97;8.50;;;;;;;3.50;76.99;99507.34;5049143;28;20249;-79
2023/03/02 08:46:11;;;;;;;13.83;8.43;;;;;;;3.64;76.51;99506.91;5053867;27;20209;-79
2023/03/02 08:48:40;;;;;;;12.43;7.90;;;;;;;3.67;76.19;99502.47;5047178;28;20205;-78
2023/03/02 08:51:10;;;;;;;13.43;8.33;;;;;;;3.78;75.90;99506.50;5050724;28;20197;-79
2023/03/02 08:53:42;;;;;;;14.33;8.33;;;;;;;3.85;75.70;99503.63;5055168;28;20266;-78
2023/03/02 08:56:20;;;;;;;13.90;8.50;;;;;;;3.92;75.54;99499.06;5057088;27;20254;-80
2023/03/02 08:58:48;;;;;;;14.70;8.27;;;;;;;4.14;74.98;99497.47;5054751;28;20211;-78
2023/03/02 09:01:19;;;;;;;12.63;8.10;;;;;;;4.15;72.71;99507.06;5047250;28;20193;-80
2023/03/02 09:03:50;;;;;;;13.97;8.10;;;;;;;4.41;71.60;99494.84;5051632;28;20711;-80
2023/03/02 09:06:18;;;;;;;13.97;8.73;;;;;;;4.55;70.96;99490.88;5051323;28;20648;-78
2023/03/02 09:08:47;;;;;;;12.30;8.40;;;;;;;4.42;70.02;99499.19;5048893;28;20204;-81
2023/03/02 09:11:15;;;;;;;14.23;8.00;;;;;;;4.48;70.21;99493.75;5050354;28;20197;-80
2023/03/02 09:13:49;;;;;;;14.47;8.13;;;;;;;4.79;68.94;99490.91;5048950;28;20217;-81
2023/03/02 09:16:19;;;;;;;14.47;8.23;;;;;;;4.78;67.95;99482.19;5051817;27;20201;-81
2023/03/02 09:18:48;;;;;;;13.53;8.07;;;;;;;4.79;67.44;99489.16;5049529;28;20221;-78
2023/03/02 09:21:16;;;;;;;16.07;8.23;;;;;;;4.93;66.30;99487.81;5053494;27;20677;-79
2023/03/02 09:23:45;;;;;;;13.23;8.50;;;;;;;4.72;65.42;99484.16;5051635;28;20197;-79
2023/03/02 09:26:13;;;;;;;13.20;8.43;;;;;;;5.09;65.43;99475.84;5048375;28;20682;-79
2023/03/02 09:28:42;;;;;;;15.23;8.23;;;;;;;5.33;63.67;99477.56;5043489;28;20204;-79
2023/03/02 09:31:13;;;;;;;13.37;8.37;;;;;;;5.42;62.32;99477.22;5051458;28;20201;-79
2023/03/02 09:33:41;;;;;;;12.27;8.27;;;;;;;5.43;62.19;99478.94;5055630;27;20219;-79
2023/03/02 09:36:15;;;;;;;13.10;7.83;;;;;;;5.49;61.08;99476.97;5053409;27;20605;-79
2023/03/02 09:38:43;;;;;;;13.27;8.30;;;;;;;5.63;60.85;99480.78;5011610;28;20201;-80
2023/03/02 09:41:31;;;;;;;13.43;8.30;;;;;;;5.80;60.98;99472.25;5049101;28;20186;-79
2023/03/02 09:44:12;;;;;;;12.93;8.47;;;;;;;6.00;58.75;99474.13;5051280;28;20260;-79
2023/03/02 09:46:47;;;;;;;14.77;8.33;;;;;;;6.15;58.83;99472.63;5051060;28;20647;-78
2023/03/02 09:49:27;;;;;;;13.27;8.53;;;;;;;6.06;58.04;99467.72;5051326;28;20197;-80
2023/03/02 09:52:07;;;;;;;14.20;7.97;;;;;;;6.22;57.47;99463.56;5056158;27;20413;-79
2023/03/02 09:54:36;;;;;;;13.17;8.30;;;;;;;6.40;57.37;99470.69;5051853;28;20219;-79
2023/03/02 09:57:20;;;;;;;13.07;7.87;;;;;;;6.64;56.97;99463.53;5053915;28;20228;-79
2023/03/02 09:59:54;;;;;;;13.67;8.47;;;;;;;6.84;56.36;99460.88;5048981;28;20196;-79
2023/03/02 10:02:30;;;;;;;12.17;8.00;;;;;;;7.13;55.90;99456.94;5050886;28;20612;-79
2023/03/02 10:05:02;;;;;;;14.53;8.10;;;;;;;7.17;55.13;99458.53;5051006;28;20193;-79
2023/03/02 10:07:35;;;;;;;13.10;7.90;;;;;;;7.35;55.02;99454.22;5050930;28;20294;-79
2023/03/02 10:10:18;;;;;;;13.60;8.20;;;;;;;7.45;54.16;99454.63;5048249;28;20239;-79
2023/03/02 10:12:58;;;;;;;12.60;8.07;;;;;;;7.64;53.65;99444.94;5051019;28;20197;-80
2023/03/02 10:15:35;;;;;;;12.70;8.27;;;;;;;7.35;53.71;99453.34;5055430;28;20334;-79
2023/03/02 10:18:18;;;;;;;12.83;8.30;;;;;;;7.59;53.60;99449.56;5050779;28;20344;-79
2023/03/02 10:20:53;;;;;;;12.30;8.47;;;;;;;8.06;53.10;99446.44;5055354;27;20207;-79
2023/03/02 10:23:31;;;;;;;13.57;8.80;;;;;;;8.25;52.22;99441.94;5053689;28;20227;-82
2023/03/02 10:26:10;;;;;;;11.83;7.60;;;;;;;8.35;51.87;99437.09;5045655;28;20224;-79
2023/03/02 10:28:46;;;;;;;12.23;8.17;;;;;;;8.43;51.57;99445.47;5050410;28;20197;-82
2023/03/02 10:31:23;;;;;;;14.63;8.57;;;;;;;8.32;50.66;99442.50;5047426;28;20200;-80
2023/03/02 10:33:53;;;;;;;13.17;8.67;;;;;;;8.51;49.91;99440.69;5049824;28;20220;-81
2023/03/02 10:36:24;;;;;;;13.67;7.87;;;;;;;8.50;49.91;99440.75;5050665;28;20215;-81
2023/03/02 10:38:54;;;;;;;10.63;8.00;;;;;;;8.60;50.68;99437.56;5050336;28;20211;-81
2023/03/02 10:41:26;;;;;;;15.90;8.30;;;;;;;8.97;50.31;99429.47;5050206;28;20228;-81
2023/03/02 10:44:01;;;;;;;15.07;8.80;;;;;;;9.01;49.12;99436.34;5050296;28;20248;-81
2023/03/02 10:46:40;;;;;;;12.70;7.97;;;;;;;9.17;48.31;99435.44;5043322;28;20245;-81
2023/03/02 10:49:24;;;;;;;14.00;8.23;;;;;;;9.39;47.17;99437.75;5049476;28;20203;-81
2023/03/02 10:51:58;;;;;;;12.30;8.60;;;;;;;9.46;47.13;99436.50;5055388;27;20226;-81
2023/03/02 10:54:27;;;;;;;11.30;7.73;;;;;;;9.39;46.81;99424.53;5049272;28;20213;-81
2023/03/02 10:56:58;;;;;;;13.13;8.13;;;;;;;9.25;46.70;99432.34;5053507;28;20194;-81
2023/03/02 10:59:43;;;;;;;11.73;7.90;;;;;;;10.05;45.85;99426.13;5052010;28;20202;-82
2023/03/02 11:02:21;;;;;;;11.97;8.07;;;;;;;9.63;45.50;99424.13;5053696;27;20249;-80
2023/03/02 11:05:19;;;;;;;15.47;8.23;;;;;;;9.50;45.61;99426.59;5050488;28;20203;-81
2023/03/02 11:07:52;;;;;;;12.30;7.73;;;;;;;10.21;45.20;99416.34;5051738;28;20197;-81
2023/03/02 11:10:24;;;;;;;11.30;7.77;;;;;;;10.32;44.12;99413.94;5052975;27;20198;-82
2023/03/02 11:12:57;;;;;;;12.37;7.30;;;;;;;10.97;43.32;99412.75;5050918;28;20211;-81
2023/03/02 11:15:28;;;;;;;12.20;7.87;;;;;;;10.46;41.71;99404.34;5055287;27;20221;-81
2023/03/02 11:18:14;;;;;;;10.97;7.63;;;;;;;10.32;42.40;99405.16;5049340;28;20205;-81
2023/03/02 11:20:49;;;;;;;10.43;6.83;;;;;;;10.73;41.93;99408.00;5047614;28;20265;-81
2023/03/02 11:23:26;;;;;;;10.13;7.20;;;;;;;10.56;41.02;99408.16;5050187;28;20207;-82
2023/03/02 11:25:58;;;;;;;11.33;7.57;;;;;;;10.96;40.83;99400.44;5050807;28;20626;-81
2023/03/02 11:28:38;;;;;;;9.60;7.20;;;;;;;10.66;40.33;99390.75;5055973;27;20205;-81
2023/03/02 11:31:14;;;;;;;10.37;6.73;;;;;;;10.95;41.25;99396.09;5052968;28;20193;-82
2023/03/02 11:33:51;;;;;;;10.90;6.97;;;;;;;11.26;40.86;99393.22;5054235;27;20653;-81
2023/03/02 11:36:36;;;;;;;11.67;7.30;;;;;;;11.11;40.17;99395.03;5049777;28;20214;-81
2023/03/02 11:39:08;;;;;;;9.33;7.33;;;;;;;11.36;39.31;99394.34;5045855;28;20193;-82
2023/03/02 11:41:37;;;;;;;13.70;7.17;;;;;;;11.17;40.15;99392.00;5107902;28;20210;-81
2023/03/02 11:44:15;;;;;;;13.13;7.90;;;;;;;10.53;40.48;99388.00;5110791;28;20225;-82